Historique des mesures à Cassis (13260), France
Quotidien Résumé Mars 30, 2017 Unités:  Métrique    US   Métrique/US
« Précédent (Jour)
Suivant (Jour) »
Quotidien Hebdomadaire Mensuel Annuel Période au choix
  Maximum: Minimum: Moyenne:
Température: TemperatureC °C 12.3 °C 15 °C
Point de rosée: DewpointC °C 6.2 °C 8.3 °C
Humidité: Humidity % 58 % 61 %
Vitesse du vent: 0 km/h 0 km/h 3.4 km/h
Rafales: 0 km/h - -
Vent:- - SE
Pression: PressurehPa hPa 1021.2 hPa -
Précipitations: 0.0 mm    
Historical Graphs
 
 
Mesures pour : Mars 30, 2017
Heure Temperature Point de rosée Pression Vent Vitesse du vent Rafales Humidité Pluie (par heure) Conditions
TemperatureC °C DewpointC °C PressurehPa hPa Calm     Humidity % HourlyPrecipMM mm SoftwareType W/m2
00:11 13.7 °C 6.8 °C 1021.9 hPa NNE 2.9 km/h 2.9 km/h 63 % 0.0 mm open2300-1.11 W/m2
01:11 13.1 °C 6.4 °C 1021.9 hPa North 4.7 km/h 5.6 km/h 64 % 0.0 mm open2300-1.11 W/m2
02:11 13.0 °C 6.3 °C 1021.9 hPa Calm   2.9 km/h 64 % 0.0 mm open2300-1.11 W/m2
03:11 12.9 °C 6.9 °C 1021.6 hPa ENE 9.3 km/h 9.3 km/h 67 % 0.0 mm open2300-1.11 W/m2
04:11 12.6 °C 6.4 °C 1021.6 hPa Calm     66 % 0.0 mm open2300-1.11 W/m2
05:11 12.3 °C 6.6 °C 1021.2 hPa NE 2.9 km/h 2.9 km/h 68 % 0.0 mm open2300-1.11 W/m2
06:11 12.4 °C 6.7 °C 1021.2 hPa Calm   4.7 km/h 68 % 0.0 mm open2300-1.11 W/m2
07:11 13.0 °C 6.8 °C 1021.2 hPa WNW 9.3 km/h 12.2 km/h 66 % 0.0 mm open2300-1.11 W/m2
08:11 13.1 °C 6.9 °C 1021.6 hPa Calm   8.9 km/h 66 % 0.0 mm open2300-1.11 W/m2
09:11 14.5 °C 7.9 °C 1021.9 hPa SE 3.4 km/h 3.4 km/h 65 % 0.0 mm open2300-1.11 W/m2
10:11 14.9 °C 8.3 °C 1022.2 hPa SSE 5.1 km/h 7.6 km/h 65 % 0.0 mm open2300-1.11 W/m2
11:11 16.9 °C 9.6 °C 1023.2 hPa SE 4.2 km/h 10.3 km/h 63 % 0.0 mm open2300-1.11 W/m2
12:11 19.4 °C 11.2 °C 1022.9 hPa SE 8 km/h 8 km/h 59 % 0.0 mm open2300-1.11 W/m2
13:11 20.1 °C 11.6 °C 1022.9 hPa ESE 7.6 km/h 7.6 km/h 58 % 0.0 mm open2300-1.11 W/m2
14:11 20.0 °C 11.7 °C 1022.6 hPa SE 5.1 km/h 13.2 km/h 59 % 0.0 mm open2300-1.11 W/m2
15:11 19.6 °C 11.7 °C 1022.2 hPa SE 4.7 km/h 9.8 km/h 60 % 0.0 mm open2300-1.11 W/m2
16:11 19.2 °C 11.7 °C 1021.9 hPa SE 3.4 km/h 9.3 km/h 62 % 0.0 mm open2300-1.11 W/m2
17:11 18.9 °C 11.7 °C 1021.9 hPa SSE 5.1 km/h 5.1 km/h 63 % 0.0 mm open2300-1.11 W/m2
18:11 18.4 °C 11.7 °C 1021.9 hPa ESE 2.9 km/h 8.9 km/h 65 % 0.0 mm open2300-1.11 W/m2
19:11 17.9 °C 10.7 °C 1021.9 hPa Calm   3.4 km/h 63 % 0.0 mm open2300-1.11 W/m2
20:11 16.6 °C 8.8 °C 1021.9 hPa Calm     60 % 0.0 mm open2300-1.11 W/m2
21:11 14.9 °C 7.4 °C 1021.9 hPa Calm     61 % 0.0 mm open2300-1.11 W/m2
22:11 14.3 °C 6.7 °C 1022.2 hPa Calm   2.9 km/h 60 % 0.0 mm open2300-1.11 W/m2
23:11 13.8 °C 6.2 °C 1021.9 hPa NW 4.7 km/h 8 km/h 60 % 0.0 mm open2300-1.11 W/m2
Observations météo à CASSIS
WU-History script by Weather Underground - 1 mb